createdAt,value
2022-09-13T11:25:46.432Z,22.1
2022-09-13T11:26:53.500Z,22.1
2022-09-13T11:28:00.758Z,22.3
2022-09-13T11:29:08.031Z,22.5
2022-09-13T11:30:15.294Z,22.5
2022-09-13T11:31:22.654Z,22.5
2022-09-13T11:32:30.043Z,22.3
2022-09-13T11:33:37.440Z,22.3
2022-09-13T11:34:45.592Z,22.3
2022-09-13T11:35:52.874Z,22.3
2022-09-13T11:37:00.138Z,22.2
2022-09-13T11:38:07.400Z,22.3
2022-09-13T11:39:15.383Z,22.4
2022-09-13T11:40:23.469Z,22.5
2022-09-13T11:41:31.627Z,22.7
2022-09-13T11:42:38.907Z,22.8
2022-09-13T11:43:47.592Z,22.7
2022-09-13T11:44:55.139Z,22.6
2022-09-13T20:11:03.987Z,22.7
2022-09-13T20:12:11.451Z,18.4
2022-09-13T20:13:18.735Z,18.3
2022-09-13T20:13:45.115Z,18.3
2022-09-13T20:14:54.503Z,18.3
2022-09-13T20:16:02.016Z,18.3
2022-09-13T20:17:09.434Z,18.3
2022-09-13T20:18:17.386Z,18.4
2022-09-13T20:19:41.742Z,18.3
2022-09-13T20:20:56.881Z,18.3
2022-09-13T20:22:04.873Z,18.3
2022-09-13T20:23:12.142Z,18.3
2022-09-13T20:24:19.418Z,18.3
2022-09-13T20:25:26.688Z,18.3
2022-09-13T20:26:33.993Z,18.3
2022-09-13T20:27:41.364Z,18.2
2022-09-13T20:28:48.724Z,18.2
2022-09-13T20:29:56.118Z,18.2
2022-09-13T20:31:03.504Z,18.2
2022-09-13T20:32:10.917Z,18.1
2022-09-13T20:33:18.915Z,18.1
2022-09-13T20:34:26.848Z,18.1
2022-09-13T20:35:34.914Z,18.1
2022-09-13T20:36:42.178Z,18
2022-09-13T20:37:49.448Z,18
2022-09-13T20:39:03.706Z,18
2022-09-13T20:40:11.219Z,18
2022-09-13T20:41:19.403Z,18
2022-09-13T20:42:26.736Z,18
2022-09-13T20:43:34.032Z,17.9
2022-09-13T20:44:41.297Z,17.9
2022-09-13T20:45:48.728Z,17.9
2022-09-13T20:46:56.803Z,17.9
2022-09-13T20:48:04.070Z,17.9
2022-09-13T20:49:11.331Z,17.9
2022-09-13T20:50:18.711Z,17.9
2022-09-13T20:51:26.152Z,17.9
2022-09-13T20:52:37.889Z,17.9
2022-09-13T20:53:45.150Z,17.9
2022-09-13T20:54:52.414Z,17.9
2022-09-13T20:55:59.687Z,17.8
